Time;durP1;ratioP1;P1;durP2;ratioP2;P2;SDS_P1;SDS_P2;PMS_P1;PMS_P2;Temp;Humidity;BMP_temperature;BMP_pressure;BME280_temperature;BME280_humidity;BME280_pressure;Samples;Min_cycle;Max_cycle;Signal;HPM_P1;HPM_P2
2022/11/10 00:02:26;;;;;;;12.77;4.88;;;10.30;99.90;;;;;;5009410;28;98786;-74
2022/11/10 00:05:12;;;;;;;13.95;4.75;;;10.30;99.90;;;;;;5011267;28;98487;-74
2022/11/10 00:08:02;;;;;;;12.52;5.00;;;10.30;99.90;;;;;;5010272;28;98523;-74
2022/11/10 00:10:57;;;;;;;13.48;4.90;;;10.30;99.90;;;;;;5011071;28;98430;-74
2022/11/10 00:17:00;;;;;;;10.98;4.82;;;10.20;99.90;;;;;;5009964;28;98519;-74
2022/11/10 00:19:46;;;;;;;18.00;5.43;;;10.20;99.90;;;;;;5011979;28;98520;-74
2022/11/10 00:22:33;;;;;;;17.85;5.75;;;10.20;99.90;;;;;;5023473;27;99279;-74
2022/11/10 00:25:18;;;;;;;17.90;5.50;;;10.10;99.90;;;;;;5013953;28;98725;-74
2022/11/10 00:28:04;;;;;;;17.85;5.45;;;10.10;99.90;;;;;;5014888;28;98528;-74
2022/11/10 00:30:49;;;;;;;14.65;5.13;;;10.10;99.90;;;;;;5013159;28;98471;-74
2022/11/10 00:33:36;;;;;;;17.40;5.75;;;10.10;99.90;;;;;;5013676;28;98565;-74
2022/11/10 00:36:23;;;;;;;15.07;6.05;;;10.10;99.90;;;;;;5014451;28;98768;-74
2022/11/10 00:39:09;;;;;;;17.70;6.80;;;10.00;99.90;;;;;;5012367;28;99072;-74
2022/11/10 00:41:54;;;;;;;17.80;6.00;;;10.00;99.90;;;;;;5014324;28;97776;-74
2022/11/10 00:44:40;;;;;;;16.60;6.18;;;10.00;99.90;;;;;;5014273;28;98481;-74
2022/11/10 00:47:25;;;;;;;12.07;5.30;;;10.00;99.90;;;;;;5012383;28;98761;-74
2022/11/10 00:50:11;;;;;;;17.60;5.80;;;10.00;99.90;;;;;;5011928;28;99207;-74
2022/11/10 00:52:56;;;;;;;15.07;6.30;;;9.90;99.90;;;;;;5013546;28;98555;-74
2022/11/10 00:55:42;;;;;;;16.23;6.72;;;9.90;99.90;;;;;;5014371;28;98563;-74
2022/11/10 00:58:27;;;;;;;14.95;6.50;;;10.00;99.90;;;;;;5012746;28;98658;-74
2022/11/10 01:01:14;;;;;;;15.07;6.03;;;9.90;99.90;;;;;;5014066;28;98635;-74
2022/11/10 01:04:00;;;;;;;17.25;6.47;;;9.90;99.90;;;;;;5015417;28;98516;-74
2022/11/10 01:06:47;;;;;;;20.98;7.30;;;9.90;99.90;;;;;;5013123;28;98556;-74
2022/11/10 01:09:32;;;;;;;18.40;7.03;;;9.90;99.90;;;;;;4999001;28;98042;-74
2022/11/10 01:12:18;;;;;;;24.83;6.82;;;9.90;99.90;;;;;;5013362;28;98537;-74
2022/11/10 01:15:04;;;;;;;20.02;6.63;;;9.90;99.90;;;;;;5012129;28;98476;-74
2022/11/10 01:17:52;;;;;;;18.42;6.55;;;9.90;99.90;;;;;;5013534;28;99192;-74
2022/11/10 01:20:37;;;;;;;19.88;6.68;;;9.90;99.90;;;;;;5014193;28;98751;-74
2022/11/10 01:23:23;;;;;;;20.27;7.43;;;9.80;99.90;;;;;;5012613;28;98623;-75
2022/11/10 01:26:09;;;;;;;17.63;7.93;;;9.80;99.90;;;;;;5026952;28;98619;-74
2022/11/10 01:28:54;;;;;;;22.65;8.38;;;9.80;99.90;;;;;;5013521;28;98571;-74
2022/11/10 01:31:40;;;;;;;20.73;8.38;;;9.80;99.90;;;;;;5012200;28;98878;-74
2022/11/10 01:34:25;;;;;;;19.73;7.38;;;9.80;99.90;;;;;;5025437;27;99437;-74
2022/11/10 01:37:11;;;;;;;25.73;8.25;;;9.80;99.90;;;;;;4999588;28;97859;-74
2022/11/10 01:39:56;;;;;;;22.05;7.97;;;9.80;99.90;;;;;;5012166;28;98491;-74
2022/11/10 01:42:49;;;;;;;22.40;8.65;;;9.80;99.90;;;;;;5012679;28;98482;-74
2022/11/10 01:46:13;;;;;;;21.23;9.30;;;9.80;99.90;;;;;;5013670;28;99273;-74
2022/11/10 01:49:02;;;;;;;25.13;9.15;;;9.80;99.90;;;;;;4996168;28;98862;-74
2022/11/10 01:52:00;;;;;;;21.27;8.95;;;9.80;99.90;;;;;;5012835;28;98531;-74
2022/11/10 01:54:48;;;;;;;22.70;9.50;;;9.80;99.90;;;;;;5011853;28;98805;-74
2022/11/10 01:57:34;;;;;;;24.55;9.65;;;9.90;99.90;;;;;;4997862;28;98515;-74
2022/11/10 02:00:20;;;;;;;21.90;9.52;;;9.90;99.90;;;;;;5011740;28;98476;-74
2022/11/10 02:03:09;;;;;;;21.30;10.65;;;9.90;99.90;;;;;;5011484;28;98621;-74
2022/11/10 02:05:55;;;;;;;24.25;9.88;;;9.90;99.90;;;;;;5013024;28;97957;-74
2022/11/10 02:08:41;;;;;;;16.90;9.45;;;9.90;99.90;;;;;;5012475;28;98525;-74
2022/11/10 02:11:28;;;;;;;22.25;9.55;;;9.90;99.90;;;;;;5011264;28;98521;-74
2022/11/10 02:14:15;;;;;;;24.13;9.52;;;9.90;99.90;;;;;;5013084;28;99189;-74
2022/11/10 02:17:00;;;;;;;18.00;9.20;;;9.90;99.90;;;;;;5011051;28;98491;-74
2022/11/10 02:19:46;;;;;;;25.00;9.20;;;9.90;99.90;;;;;;5011580;28;98515;-74
2022/11/10 02:22:32;;;;;;;21.15;8.52;;;9.90;99.90;;;;;;5013002;28;98486;-74
2022/11/10 02:25:22;;;;;;;26.50;10.10;;;9.90;99.90;;;;;;5013589;28;98477;-74
2022/11/10 02:28:07;;;;;;;29.98;9.40;;;9.90;99.90;;;;;;5011086;28;98775;-74
2022/11/10 02:30:53;;;;;;;22.20;9.05;;;9.90;99.90;;;;;;5011571;28;98664;-74
2022/11/10 02:33:39;;;;;;;17.90;7.72;;;9.90;99.90;;;;;;5013884;28;98114;-74
2022/11/10 02:36:24;;;;;;;20.45;9.98;;;9.90;99.90;;;;;;5010735;28;98514;-74
2022/11/10 02:39:10;;;;;;;21.80;9.25;;;9.90;99.90;;;;;;5011769;28;98775;-74
2022/11/10 02:41:55;;;;;;;21.85;7.32;;;10.00;99.90;;;;;;5009770;28;99278;-74
2022/11/10 02:44:41;;;;;;;22.52;8.48;;;9.90;99.90;;;;;;5011537;28;98553;-74
2022/11/10 02:47:27;;;;;;;16.02;7.53;;;10.00;99.90;;;;;;5012090;28;98534;-74
2022/11/10 02:50:12;;;;;;;26.27;7.75;;;10.00;99.90;;;;;;5012666;28;98837;-74
2022/11/10 02:52:57;;;;;;;19.35;8.75;;;9.90;99.90;;;;;;4995716;28;98697;-74
2022/11/10 02:55:43;;;;;;;18.77;8.48;;;10.00;99.90;;;;;;5025258;28;99029;-74
2022/11/10 02:58:28;;;;;;;21.13;9.18;;;10.00;99.90;;;;;;5026015;28;99114;-72
2022/11/10 03:01:14;;;;;;;18.80;8.40;;;10.00;99.90;;;;;;5011522;28;97942;-72
2022/11/10 03:03:59;;;;;;;16.65;8.07;;;10.00;99.90;;;;;;5010902;28;98469;-72
2022/11/10 03:06:45;;;;;;;22.13;8.43;;;10.00;99.90;;;;;;5011553;28;98499;-72
2022/11/10 03:09:30;;;;;;;20.02;7.88;;;9.90;99.90;;;;;;5010894;28;99144;-71
2022/11/10 03:12:16;;;;;;;23.65;7.97;;;9.90;99.90;;;;;;5010909;28;98788;-74
2022/11/10 03:15:02;;;;;;;23.00;7.97;;;9.90;99.90;;;;;;5012469;28;99681;-74
2022/11/10 03:17:47;;;;;;;16.73;8.73;;;9.90;99.90;;;;;;5010957;28;99100;-74
2022/11/10 03:20:32;;;;;;;19.58;7.85;;;9.90;99.90;;;;;;5011828;28;98988;-74
2022/11/10 03:23:18;;;;;;;17.88;7.45;;;9.90;99.90;;;;;;5012028;28;99373;-74
2022/11/10 03:26:07;;;;;;;16.27;7.50;;;9.90;99.90;;;;;;5010419;28;98526;-74
2022/11/10 03:28:52;;;;;;;18.75;8.23;;;9.90;99.90;;;;;;5012050;28;97815;-74
2022/11/10 03:31:38;;;;;;;20.92;7.47;;;9.90;99.90;;;;;;5012274;28;98464;-74
2022/11/10 03:34:23;;;;;;;20.67;7.65;;;9.90;99.90;;;;;;5010259;28;98839;-74
2022/11/10 03:37:13;;;;;;;23.83;7.93;;;9.90;99.90;;;;;;5010848;28;99218;-74
2022/11/10 03:39:59;;;;;;;20.42;8.32;;;9.90;99.90;;;;;;5012536;28;98754;-74
2022/11/10 03:42:45;;;;;;;27.13;9.00;;;9.90;99.90;;;;;;5010452;28;98523;-74
2022/11/10 03:45:30;;;;;;;22.40;9.35;;;9.90;99.90;;;;;;5011305;28;98865;-74
2022/11/10 03:48:16;;;;;;;25.52;9.80;;;9.90;99.90;;;;;;5011853;28;98490;-72
2022/11/10 03:51:01;;;;;;;27.63;9.55;;;9.90;99.90;;;;;;5009278;28;98561;-72
2022/11/10 03:53:47;;;;;;;28.40;10.43;;;9.90;99.90;;;;;;5011229;28;98573;-72
2022/11/10 03:56:32;;;;;;;25.00;10.10;;;9.90;99.90;;;;;;5010202;28;97950;-74
2022/11/10 03:59:18;;;;;;;19.70;10.57;;;9.90;99.90;;;;;;5012716;28;98523;-74
2022/11/10 04:02:03;;;;;;;27.75;10.50;;;9.90;99.90;;;;;;4999059;28;99135;-74
2022/11/10 04:11:03;;;;;;;30.00;11.38;;;9.90;99.90;;;;;;5014223;28;98600;-74
2022/11/10 04:16:53;;;;;;;30.37;11.87;;;9.90;99.90;;;;;;5014268;28;99018;-74
2022/11/10 04:19:38;;;;;;;32.05;12.02;;;9.90;99.90;;;;;;5013251;28;98489;-74
2022/11/10 04:25:28;;;;;;;25.80;11.00;;;9.90;99.90;;;;;;5014788;28;97654;-74
2022/11/10 04:28:13;;;;;;;24.05;10.85;;;9.90;99.90;;;;;;4999914;28;98472;-74
2022/11/10 04:30:58;;;;;;;32.05;12.70;;;9.90;99.90;;;;;;5012933;28;98690;-74
2022/11/10 04:33:45;;;;;;;34.13;12.65;;;10.00;99.90;;;;;;5012643;28;99238;-74
2022/11/10 04:36:32;;;;;;;31.10;11.75;;;9.90;99.90;;;;;;5014879;28;98490;-74
2022/11/10 04:39:17;;;;;;;25.50;12.80;;;9.90;99.90;;;;;;5012690;28;98648;-74
2022/11/10 04:42:03;;;;;;;26.20;12.48;;;9.90;99.90;;;;;;5013618;28;98782;-74
2022/11/10 04:44:48;;;;;;;30.30;12.82;;;9.90;99.90;;;;;;5014460;28;99320;-74
2022/11/10 04:47:34;;;;;;;37.10;12.55;;;9.90;99.90;;;;;;5013378;28;98568;-74
2022/11/10 04:50:20;;;;;;;34.13;12.20;;;9.90;99.90;;;;;;5014049;28;98412;-74
2022/11/10 04:53:05;;;;;;;25.20;11.93;;;9.90;99.90;;;;;;5013574;28;98039;-74
2022/11/10 04:55:52;;;;;;;35.60;12.13;;;9.90;99.90;;;;;;5010838;28;98692;-72
2022/11/10 04:58:37;;;;;;;29.48;13.07;;;9.90;99.90;;;;;;5013715;28;98556;-71
2022/11/10 05:01:26;;;;;;;34.50;13.70;;;9.90;99.90;;;;;;5014124;28;99126;-72
2022/11/10 05:04:11;;;;;;;35.00;13.15;;;10.00;99.90;;;;;;5011873;28;98826;-74
2022/11/10 05:06:57;;;;;;;31.40;13.07;;;10.00;99.90;;;;;;5013219;28;98765;-74
2022/11/10 05:09:42;;;;;;;32.10;12.82;;;10.00;99.90;;;;;;5013619;28;98850;-74
2022/11/10 05:12:27;;;;;;;31.20;13.30;;;10.00;99.90;;;;;;5011447;28;98743;-74
2022/11/10 05:15:13;;;;;;;38.28;14.35;;;10.00;99.90;;;;;;5012087;28;98926;-74
2022/11/10 05:17:59;;;;;;;37.85;14.73;;;10.10;99.90;;;;;;5012402;28;98840;-74
2022/11/10 05:20:44;;;;;;;33.97;13.50;;;10.10;99.90;;;;;;5012756;28;97772;-74
2022/11/10 05:23:39;;;;;;;33.35;14.55;;;10.10;99.90;;;;;;5012313;28;98552;-74
2022/11/10 05:26:24;;;;;;;25.77;13.18;;;10.10;99.90;;;;;;5013951;28;98993;-74
2022/11/10 05:29:10;;;;;;;30.27;13.93;;;10.20;99.90;;;;;;5011514;28;99807;-74
2022/11/10 05:31:55;;;;;;;35.45;15.30;;;10.20;99.90;;;;;;5012926;28;98469;-74
2022/11/10 05:34:41;;;;;;;35.42;15.45;;;10.30;99.90;;;;;;5013792;28;98479;-74
2022/11/10 05:37:26;;;;;;;32.22;14.27;;;10.30;99.90;;;;;;5024843;28;98714;-74
2022/11/10 05:40:12;;;;;;;36.83;15.43;;;10.30;99.90;;;;;;5011507;28;98519;-74
2022/11/10 05:42:57;;;;;;;39.03;16.13;;;10.40;99.90;;;;;;5013642;28;98429;-74
2022/11/10 05:45:43;;;;;;;30.92;13.63;;;10.40;99.90;;;;;;5010944;28;98451;-74
2022/11/10 05:48:28;;;;;;;38.50;15.80;;;10.40;99.90;;;;;;5011764;28;98047;-72
2022/11/10 05:51:14;;;;;;;44.15;16.65;;;10.50;99.90;;;;;;5013100;28;98421;-72
2022/11/10 05:53:59;;;;;;;32.30;15.43;;;10.50;99.90;;;;;;4996433;28;98466;-72
2022/11/10 05:56:45;;;;;;;35.25;17.00;;;10.50;99.90;;;;;;5012073;28;99276;-72
2022/11/10 05:59:30;;;;;;;40.13;17.50;;;10.50;99.90;;;;;;5012721;28;98768;-72
2022/11/10 06:02:16;;;;;;;31.25;15.10;;;10.50;99.90;;;;;;5010055;28;98589;-72
2022/11/10 06:05:02;;;;;;;31.27;13.70;;;10.50;99.90;;;;;;5012083;28;98644;-72
2022/11/10 06:07:48;;;;;;;34.92;15.65;;;10.50;99.90;;;;;;5012160;28;99444;-72
2022/11/10 06:10:34;;;;;;;37.08;16.98;;;10.60;99.90;;;;;;5009601;28;98807;-72
2022/11/10 06:13:19;;;;;;;29.25;15.07;;;10.60;99.90;;;;;;5011704;28;98553;-72
2022/11/10 06:16:05;;;;;;;34.00;15.68;;;10.60;99.90;;;;;;5013006;28;97803;-72
2022/11/10 06:18:51;;;;;;;36.03;15.15;;;10.60;99.90;;;;;;5009951;28;98470;-72
2022/11/10 06:21:36;;;;;;;32.25;15.15;;;10.60;99.90;;;;;;5011830;28;99007;-72
2022/11/10 06:24:22;;;;;;;35.13;14.48;;;10.60;99.90;;;;;;5011730;28;99732;-72
2022/11/10 06:27:07;;;;;;;32.35;14.70;;;10.60;99.90;;;;;;4995773;28;98414;-72
2022/11/10 06:29:52;;;;;;;33.47;15.15;;;10.70;99.90;;;;;;5010888;28;98559;-72
2022/11/10 06:32:42;;;;;;;43.88;16.23;;;10.70;99.90;;;;;;5011490;28;98809;-72
2022/11/10 06:35:28;;;;;;;41.80;15.65;;;10.70;99.90;;;;;;5009196;28;98575;-71
2022/11/10 06:38:13;;;;;;;34.30;14.60;;;10.70;99.90;;;;;;5011219;28;99045;-72
2022/11/10 06:40:59;;;;;;;36.65;15.80;;;10.70;99.90;;;;;;5012466;28;98496;-72
2022/11/10 06:43:44;;;;;;;34.17;15.30;;;10.70;99.90;;;;;;5009495;28;98278;-72
2022/11/10 06:46:30;;;;;;;33.92;15.52;;;10.70;99.90;;;;;;5010845;28;98969;-72
2022/11/10 06:49:15;;;;;;;31.55;15.43;;;10.70;99.90;;;;;;5012198;28;98893;-72
2022/11/10 06:52:01;;;;;;;38.30;16.48;;;10.70;99.90;;;;;;5009334;28;99805;-72
2022/11/10 06:54:46;;;;;;;30.92;15.10;;;10.60;99.90;;;;;;5010559;28;98975;-74
2022/11/10 06:57:39;;;;;;;34.13;14.35;;;10.60;99.90;;;;;;5011581;28;99064;-74
2022/11/10 07:00:25;;;;;;;36.25;15.27;;;10.70;99.90;;;;;;5009786;28;98499;-74
2022/11/10 07:03:13;;;;;;;37.53;15.73;;;10.60;99.90;;;;;;5011431;28;98434;-74
2022/11/10 07:05:58;;;;;;;37.67;15.32;;;10.60;99.90;;;;;;5011644;28;98780;-74
2022/11/10 07:08:44;;;;;;;37.47;15.00;;;10.60;99.90;;;;;;5009814;28;98464;-74
2022/11/10 07:11:29;;;;;;;39.47;16.20;;;10.60;99.90;;;;;;5011359;28;97676;-74
2022/11/10 07:14:15;;;;;;;37.65;15.57;;;10.70;99.90;;;;;;5010783;28;98484;-74
2022/11/10 07:17:00;;;;;;;24.10;12.50;;;10.70;99.90;;;;;;5009505;28;98734;-74
2022/11/10 07:19:46;;;;;;;31.92;14.60;;;10.80;99.90;;;;;;5022909;28;99209;-74
2022/11/10 07:22:32;;;;;;;34.72;14.73;;;10.80;99.90;;;;;;5011159;28;98683;-75
2022/11/10 07:25:17;;;;;;;31.90;15.13;;;10.90;99.90;;;;;;5012104;28;98539;-74
2022/11/10 07:28:05;;;;;;;29.98;14.70;;;11.00;99.90;;;;;;5010571;28;98715;-74
2022/11/10 07:30:51;;;;;;;18.48;12.32;;;11.10;99.90;;;;;;5011306;28;98561;-74
2022/11/10 07:33:36;;;;;;;27.17;12.85;;;11.20;99.90;;;;;;5011840;28;98523;-74
2022/11/10 07:36:22;;;;;;;23.80;12.40;;;11.30;99.90;;;;;;5009332;28;98493;-75
2022/11/10 07:39:07;;;;;;;25.35;12.55;;;11.50;99.90;;;;;;5011300;28;97997;-74
2022/11/10 07:41:53;;;;;;;20.65;13.93;;;11.60;99.90;;;;;;5011881;28;98553;-74
2022/11/10 07:44:38;;;;;;;32.83;11.80;;;11.70;99.90;;;;;;5010418;28;98507;-74
2022/11/10 07:47:24;;;;;;;23.05;11.68;;;11.80;99.90;;;;;;5009696;28;99283;-74
2022/11/10 07:50:10;;;;;;;23.85;11.32;;;11.90;99.90;;;;;;5009758;28;98669;-74
2022/11/10 07:53:02;;;;;;;28.00;12.48;;;11.90;99.90;;;;;;5008712;28;98554;-74
2022/11/10 07:55:48;;;;;;;26.42;12.40;;;12.00;99.90;;;;;;5010883;28;98500;-72
2022/11/10 07:58:34;;;;;;;24.58;11.98;;;12.00;99.90;;;;;;5010372;28;98577;-72
2022/11/10 08:01:19;;;;;;;25.42;11.65;;;12.00;99.90;;;;;;5009378;28;98795;-72
2022/11/10 08:04:05;;;;;;;37.05;13.38;;;11.90;99.90;;;;;;5010591;28;99265;-72
2022/11/10 08:06:50;;;;;;;24.83;11.02;;;11.90;99.90;;;;;;5012042;28;97862;-72
2022/11/10 08:09:36;;;;;;;21.23;12.73;;;11.90;99.90;;;;;;5008838;28;98481;-72
2022/11/10 08:12:21;;;;;;;21.23;12.00;;;12.00;99.90;;;;;;5023455;28;99236;-72
2022/11/10 08:15:07;;;;;;;22.08;12.73;;;12.00;99.90;;;;;;5010562;28;99909;-72
2022/11/10 08:18:14;;;;;;;29.27;13.52;;;12.00;99.90;;;;;;5008752;28;98539;-72
2022/11/10 08:21:01;;;;;;;26.80;13.10;;;12.10;99.90;;;;;;5011099;28;98904;-75
2022/11/10 08:23:46;;;;;;;22.42;11.27;;;12.10;99.90;;;;;;5008691;28;98781;-73
2022/11/10 08:26:32;;;;;;;17.73;12.43;;;12.10;99.90;;;;;;5008896;28;98656;-72
2022/11/10 08:29:17;;;;;;;28.63;12.13;;;12.20;99.90;;;;;;5011017;28;98499;-72
2022/11/10 08:32:03;;;;;;;26.48;13.45;;;12.20;99.90;;;;;;5009142;28;98444;-73
2022/11/10 08:34:48;;;;;;;19.20;11.63;;;12.20;99.90;;;;;;5008963;28;98077;-72
2022/11/10 08:37:34;;;;;;;23.60;11.80;;;12.20;99.90;;;;;;5010350;28;98410;-72
2022/11/10 08:40:20;;;;;;;26.17;13.02;;;12.10;99.90;;;;;;5011295;28;98559;-72
2022/11/10 08:43:07;;;;;;;24.13;12.40;;;12.10;99.90;;;;;;5008313;28;99405;-73
2022/11/10 08:45:57;;;;;;;22.75;11.25;;;12.20;99.90;;;;;;5013598;28;98812;-72
2022/11/10 08:48:42;;;;;;;24.10;11.95;;;12.20;99.90;;;;;;5011779;28;98590;-72
2022/11/10 08:51:28;;;;;;;25.02;10.60;;;12.30;99.90;;;;;;5012792;28;98440;-72
2022/11/10 08:54:13;;;;;;;28.08;11.57;;;12.30;99.90;;;;;;5013210;28;98953;-72
2022/11/10 08:56:59;;;;;;;19.33;10.93;;;12.40;99.90;;;;;;5013790;28;99036;-72
2022/11/10 08:59:44;;;;;;;25.73;12.05;;;12.50;99.90;;;;;;5012428;28;98561;-72
2022/11/10 09:02:30;;;;;;;21.42;10.02;;;12.50;99.90;;;;;;5012630;28;97850;-72
2022/11/10 09:05:16;;;;;;;26.40;11.80;;;12.60;99.90;;;;;;5011945;28;98387;-72
2022/11/10 09:08:02;;;;;;;28.73;12.18;;;12.60;99.90;;;;;;5011109;28;98783;-72
2022/11/10 09:10:51;;;;;;;21.58;10.48;;;12.70;99.90;;;;;;5012523;28;99262;-72
2022/11/10 09:13:36;;;;;;;25.10;9.52;;;12.70;99.90;;;;;;5012997;28;98609;-72
2022/11/10 09:16:21;;;;;;;25.95;10.85;;;12.70;99.90;;;;;;5026397;28;98602;-72
2022/11/10 09:19:07;;;;;;;18.27;10.65;;;12.80;99.90;;;;;;5013155;28;98744;-72
2022/11/10 09:21:52;;;;;;;27.55;10.57;;;12.80;99.90;;;;;;5012552;28;98652;-72
2022/11/10 09:24:38;;;;;;;20.00;10.32;;;12.90;99.90;;;;;;5012295;28;98553;-72
2022/11/10 09:27:24;;;;;;;21.45;9.93;;;13.10;99.90;;;;;;5026661;28;99021;-72
2022/11/10 09:30:09;;;;;;;18.80;9.82;;;13.20;99.90;;;;;;5013659;28;98297;-73
2022/11/10 09:33:01;;;;;;;21.65;9.70;;;13.30;99.90;;;;;;5011389;28;98598;-72
2022/11/10 09:35:46;;;;;;;17.58;8.38;;;13.50;99.90;;;;;;5013701;28;98599;-73
2022/11/10 09:38:34;;;;;;;18.70;9.60;;;13.60;99.90;;;;;;5013979;28;99566;-72
2022/11/10 09:41:19;;;;;;;19.70;9.13;;;13.70;99.90;;;;;;5011041;28;98817;-72
2022/11/10 09:44:13;;;;;;;21.00;8.55;;;13.80;99.90;;;;;;4998332;28;98588;-73
2022/11/10 09:47:13;;;;;;;17.27;9.13;;;14.00;99.90;;;;;;5014507;28;98387;-73
2022/11/10 09:50:05;;;;;;;17.92;7.93;;;14.10;99.90;;;;;;5013452;28;98519;-73
2022/11/10 09:52:51;;;;;;;17.80;7.85;;;14.10;99.90;;;;;;5026725;28;99063;-72
2022/11/10 09:55:43;;;;;;;17.77;8.05;;;14.10;99.90;;;;;;5009595;28;99164;-72
2022/11/10 09:58:41;;;;;;;19.63;7.55;;;14.20;99.90;;;;;;5012484;28;97798;-72
2022/11/10 10:01:44;;;;;;;17.27;7.85;;;14.30;99.90;;;;;;5014343;28;98906;-72
2022/11/10 10:04:55;;;;;;;21.30;8.27;;;14.40;99.90;;;;;;5012521;28;98715;-72
2022/11/10 10:07:55;;;;;;;19.13;6.15;;;14.50;99.90;;;;;;5026333;28;99296;-72
2022/11/10 10:10:46;;;;;;;18.23;7.30;;;14.40;99.90;;;;;;5025261;28;98523;-73
2022/11/10 10:13:57;;;;;;;17.05;8.27;;;14.50;99.90;;;;;;5013470;28;98488;-72
2022/11/10 10:17:20;;;;;;;19.85;8.18;;;14.50;99.90;;;;;;5011480;28;98503;-73
2022/11/10 10:20:24;;;;;;;17.33;8.40;;;14.70;99.90;;;;;;5026162;28;98578;-72
2022/11/10 10:23:40;;;;;;;21.05;8.68;;;14.70;99.90;;;;;;5012314;28;99343;-72
2022/11/10 10:26:49;;;;;;;;;;;14.80;99.90;;;;;;5011835;28;98404;-72
2022/11/10 10:29:39;;;;;;;17.88;7.32;;;14.70;99.90;;;;;;5013570;28;97979;-72
2022/11/10 10:32:25;;;;;;;18.98;6.65;;;14.70;99.90;;;;;;5012951;28;98453;-72
2022/11/10 10:35:16;;;;;;;16.63;5.90;;;14.80;99.90;;;;;;5011649;28;99059;-72
2022/11/10 10:38:08;;;;;;;22.73;7.38;;;14.90;99.90;;;;;;5011946;28;99286;-73
2022/11/10 10:41:02;;;;;;;13.27;5.90;;;14.90;99.90;;;;;;5011690;28;98735;-72
2022/11/10 10:43:50;;;;;;;14.38;5.70;;;15.00;99.90;;;;;;5010256;28;99549;-73
2022/11/10 10:46:48;;;;;;;17.63;5.95;;;15.10;99.90;;;;;;5012590;28;98495;-72
2022/11/10 10:49:35;;;;;;;18.05;6.22;;;15.10;99.90;;;;;;5009945;28;98604;-73
2022/11/10 10:52:23;;;;;;;17.90;6.13;;;15.10;99.90;;;;;;5010260;28;98827;-72
2022/11/10 10:55:12;;;;;;;14.15;5.90;;;15.10;99.90;;;;;;5025143;28;99167;-73
2022/11/10 10:58:18;;;;;;;16.45;5.13;;;15.10;99.90;;;;;;5009905;28;97842;-73
2022/11/10 11:01:18;;;;;;;19.27;5.28;;;15.10;99.90;;;;;;5011804;28;98398;-73
2022/11/10 11:04:25;;;;;;;14.60;5.30;;;15.20;99.90;;;;;;5010093;28;99143;-72
2022/11/10 11:07:24;;;;;;;18.73;4.78;;;15.40;99.90;;;;;;5009177;28;99470;-72
2022/11/10 11:10:23;;;;;;;18.33;4.88;;;15.70;99.90;;;;;;5012841;28;99387;-73
2022/11/10 11:13:13;;;;;;;11.38;4.72;;;15.80;99.90;;;;;;5011391;28;98520;-73
2022/11/10 11:16:01;;;;;;;10.55;4.32;;;15.80;99.90;;;;;;5011845;28;98828;-73
2022/11/10 11:18:46;;;;;;;20.70;5.22;;;15.80;99.90;;;;;;5010127;28;98507;-73
2022/11/10 11:22:13;;;;;;;17.85;4.88;;;15.80;99.90;;;;;;5011260;28;98423;-72
2022/11/10 11:25:17;;;;;;;15.30;4.93;;;15.80;99.90;;;;;;4993625;28;98626;-72
2022/11/10 11:28:11;;;;;;;14.27;4.13;;;15.80;99.90;;;;;;5010750;28;98114;-73
2022/11/10 11:31:15;;;;;;;;;;;15.90;99.90;;;;;;5025997;28;99061;-73
2022/11/10 11:34:22;;;;;;;11.13;3.35;;;16.00;99.90;;;;;;5012376;28;98497;-72
2022/11/10 11:37:10;;;;;;;12.30;4.03;;;16.00;99.90;;;;;;5025277;28;99368;-72
2022/11/10 11:40:22;;;;;;;12.13;4.55;;;16.10;99.90;;;;;;5009859;28;98818;-73
2022/11/10 11:43:26;;;;;;;14.40;4.32;;;16.30;99.90;;;;;;5011761;28;98547;-72
2022/11/10 11:46:50;;;;;;;17.60;4.25;;;16.40;99.90;;;;;;5010851;28;98459;-73
2022/11/10 11:49:41;;;;;;;15.73;4.32;;;16.40;99.90;;;;;;5011413;28;98561;-73
2022/11/10 11:52:29;;;;;;;12.88;4.95;;;16.40;99.90;;;;;;5010412;28;98807;-72
2022/11/10 11:55:33;;;;;;;11.10;3.72;;;16.40;99.90;;;;;;5010927;28;98534;-73
2022/11/10 11:58:21;;;;;;;12.63;4.13;;;16.60;99.90;;;;;;5010500;28;97978;-73
2022/11/10 12:01:34;;;;;;;11.95;4.03;;;16.50;99.90;;;;;;5010706;28;98420;-72
2022/11/10 12:04:38;;;;;;;12.95;4.78;;;16.60;99.90;;;;;;5025082;28;98754;-73
2022/11/10 12:07:41;;;;;;;12.65;4.40;;;16.60;99.90;;;;;;5023574;28;99367;-73
2022/11/10 12:11:02;;;;;;;12.10;4.20;;;16.60;99.90;;;;;;5025432;28;98593;-73
2022/11/10 12:14:01;;;;;;;13.63;4.60;;;16.60;99.90;;;;;;5010998;28;98642;-72
2022/11/10 12:17:11;;;;;;;15.07;4.90;;;16.70;99.90;;;;;;5011645;28;98743;-73
2022/11/10 12:20:18;;;;;;;13.88;4.15;;;16.70;99.90;;;;;;5013811;28;98949;-73
2022/11/10 12:23:50;;;;;;;14.73;3.90;;;16.80;99.90;;;;;;5015369;28;98589;-73
2022/11/10 12:26:57;;;;;;;15.50;4.10;;;16.80;99.90;;;;;;5027766;28;98480;-73
2022/11/10 12:29:54;;;;;;;15.18;3.85;;;16.80;99.90;;;;;;5013360;28;98120;-72
2022/11/10 12:33:07;;;;;;;16.83;4.78;;;16.80;99.90;;;;;;5027220;28;98603;-73
2022/11/10 12:35:55;;;;;;;13.63;3.67;;;16.90;99.90;;;;;;5012255;28;98758;-72
2022/11/10 12:39:13;;;;;;;12.20;3.85;;;16.80;99.90;;;;;;5012585;28;99309;-73
2022/11/10 12:42:01;;;;;;;10.60;3.17;;;16.80;99.90;;;;;;5012035;28;99005;-73
2022/11/10 12:44:59;;;;;;;12.43;3.55;;;16.60;99.90;;;;;;5013609;28;98506;-72
2022/11/10 12:47:46;;;;;;;13.68;4.05;;;16.70;99.90;;;;;;5014766;28;98994;-73
2022/11/10 12:50:40;;;;;;;15.00;3.10;;;16.60;99.90;;;;;;5012698;28;98484;-75
2022/11/10 12:53:35;;;;;;;;;;;16.70;99.90;;;;;;5014308;28;98812;-75
2022/11/10 12:56:32;;;;;;;16.20;3.60;;;16.50;99.90;;;;;;5015257;28;99138;-75
2022/11/10 12:59:20;;;;;;;12.15;3.22;;;16.60;99.90;;;;;;5013706;28;97789;-75
2022/11/10 13:02:41;;;;;;;10.73;3.50;;;16.60;99.90;;;;;;5014042;28;98508;-75
2022/11/10 13:05:41;;;;;;;11.35;2.97;;;16.80;99.90;;;;;;5012737;28;98698;-72
2022/11/10 13:08:32;;;;;;;16.67;3.63;;;16.80;99.90;;;;;;5013774;28;99229;-72
2022/11/10 13:11:17;;;;;;;8.50;2.78;;;16.90;99.90;;;;;;5012886;28;99010;-72
2022/11/10 13:14:18;;;;;;;14.73;2.90;;;16.90;99.90;;;;;;5013478;28;98761;-72
2022/11/10 13:17:04;;;;;;;13.07;3.05;;;16.90;99.90;;;;;;5014213;28;98776;-72
2022/11/10 13:19:51;;;;;;;16.70;2.90;;;16.90;99.90;;;;;;4997305;28;99200;-72
2022/11/10 13:22:39;;;;;;;13.40;3.00;;;16.90;99.90;;;;;;5013655;28;98605;-72
2022/11/10 13:25:35;;;;;;;15.82;2.78;;;16.90;99.90;;;;;;5014620;28;98505;-72
2022/11/10 13:28:45;;;;;;;16.17;3.33;;;16.90;99.90;;;;;;5012482;28;98042;-72
2022/11/10 13:31:30;;;;;;;13.10;4.63;;;16.90;99.90;;;;;;5013368;28;98497;-72
2022/11/10 13:34:35;;;;;;;13.10;3.10;;;16.80;99.90;;;;;;5025147;28;98643;-72
2022/11/10 13:37:32;;;;;;;13.07;3.05;;;16.80;99.90;;;;;;5013216;28;99764;-72
2022/11/10 13:40:24;;;;;;;10.45;2.45;;;16.80;99.90;;;;;;5013826;28;98425;-72
2022/11/10 13:43:23;;;;;;;12.02;2.85;;;16.80;99.90;;;;;;5025438;28;98607;-72
2022/11/10 13:46:09;;;;;;;12.07;2.53;;;16.80;99.90;;;;;;5013831;28;98529;-73
2022/11/10 13:49:11;;;;;;;12.75;3.63;;;16.70;99.90;;;;;;5011131;28;98703;-72
2022/11/10 13:52:16;;;;;;;14.00;3.35;;;16.70;99.90;;;;;;5013304;28;98998;-72
2022/11/10 13:55:21;;;;;;;9.45;2.85;;;16.70;99.90;;;;;;5011003;28;98558;-72
2022/11/10 13:58:21;;;;;;;10.27;3.00;;;16.60;99.90;;;;;;5013721;28;98294;-72
2022/11/10 14:01:16;;;;;;;12.27;3.03;;;16.50;99.90;;;;;;5014006;28;98513;-72
2022/11/10 14:04:03;;;;;;;8.57;2.47;;;16.50;99.90;;;;;;5025474;28;98754;-72
2022/11/10 14:06:54;;;;;;;12.65;2.88;;;16.40;99.90;;;;;;5012761;28;99388;-72
2022/11/10 14:09:51;;;;;;;10.73;3.25;;;16.40;99.90;;;;;;5010753;28;98499;-72
2022/11/10 14:12:52;;;;;;;10.43;2.70;;;16.30;99.90;;;;;;5011731;28;98975;-72
2022/11/10 14:15:46;;;;;;;10.35;2.65;;;16.20;99.90;;;;;;5012916;28;98967;-72
2022/11/10 14:18:38;;;;;;;;;;;16.30;99.90;;;;;;5012297;28;98587;-72
2022/11/10 14:21:47;;;;;;;17.13;3.00;;;16.10;99.90;;;;;;5014142;28;99455;-74
2022/11/10 14:24:50;;;;;;;10.73;3.17;;;16.10;99.90;;;;;;5011157;28;98494;-74
2022/11/10 14:27:37;;;;;;;12.60;2.83;;;16.00;99.90;;;;;;5012176;28;98243;-75
2022/11/10 14:30:30;;;;;;;14.13;3.30;;;16.00;99.90;;;;;;5023617;28;98575;-72
2022/11/10 14:33:15;;;;;;;10.30;2.47;;;16.00;99.90;;;;;;5011874;28;98495;-72
2022/11/10 14:36:04;;;;;;;12.05;2.78;;;16.00;99.90;;;;;;5011641;28;99422;-72
2022/11/10 14:38:51;;;;;;;10.45;2.95;;;16.00;99.90;;;;;;5012253;28;98984;-72
2022/11/10 14:41:45;;;;;;;11.13;2.60;;;16.00;99.90;;;;;;5024495;28;98674;-72
2022/11/10 14:44:32;;;;;;;13.73;3.10;;;16.00;99.90;;;;;;5013014;28;98569;-72
2022/11/10 14:47:24;;;;;;;12.90;3.35;;;15.90;99.90;;;;;;5010226;28;98572;-72
2022/11/10 14:50:12;;;;;;;9.90;3.13;;;16.00;99.90;;;;;;5011886;28;98685;-71